createdAt,value
2023-01-30T00:01:44.798Z,46.50
2023-01-30T00:04:16.084Z,56.43
2023-01-30T00:06:45.998Z,60.73
2023-01-30T00:09:15.117Z,46.77
2023-01-30T00:11:43.039Z,43.47
2023-01-30T00:14:10.720Z,45.40
2023-01-30T00:16:38.469Z,44.10
2023-01-30T00:19:07.153Z,45.73
2023-01-30T00:21:34.998Z,45.93
2023-01-30T00:24:04.111Z,44.07
2023-01-30T00:26:31.807Z,45.13
2023-01-30T00:28:59.442Z,44.53
2023-01-30T00:31:27.173Z,45.63
2023-01-30T00:33:55.148Z,42.87
2023-01-30T00:36:22.754Z,44.60
2023-01-30T00:38:50.332Z,43.57
2023-01-30T00:41:19.250Z,42.10
2023-01-30T00:44:04.560Z,40.73
2023-01-30T00:46:52.198Z,40.70
2023-01-30T00:49:20.707Z,42.50
2023-01-30T00:51:48.461Z,41.30
2023-01-30T00:54:16.168Z,39.80
2023-01-30T00:56:45.220Z,39.93
2023-01-30T00:59:12.804Z,40.00
2023-01-30T01:01:40.729Z,38.70
2023-01-30T01:04:10.490Z,38.93
2023-01-30T01:06:38.357Z,41.90
2023-01-30T01:09:06.885Z,39.30
2023-01-30T01:11:34.533Z,39.83
2023-01-30T01:14:05.763Z,38.03
2023-01-30T01:16:34.985Z,36.03
2023-01-30T01:19:03.668Z,40.70
2023-01-30T01:21:31.381Z,38.23
2023-01-30T01:24:00.656Z,36.33
2023-01-30T01:26:28.731Z,37.63
2023-01-30T01:28:56.929Z,36.63
2023-01-30T01:31:26.658Z,36.30
2023-01-30T01:33:54.366Z,37.93
2023-01-30T01:36:51.534Z,37.93
2023-01-30T01:39:10.142Z,35.30
2023-01-30T01:41:36.799Z,36.77
2023-01-30T01:44:07.281Z,37.03
2023-01-30T01:46:39.660Z,35.00
2023-01-30T01:49:13.709Z,37.30
2023-01-30T01:51:47.431Z,37.20
2023-01-30T01:54:19.656Z,35.20
2023-01-30T01:56:50.727Z,36.00
2023-01-30T01:59:23.714Z,34.37
2023-01-30T02:01:56.942Z,33.33
2023-01-30T02:04:40.300Z,50.07
2023-01-30T02:07:09.616Z,104.00
2023-01-30T02:09:37.850Z,141.37
2023-01-30T02:12:06.888Z,158.57
2023-01-30T02:14:35.351Z,163.70
2023-01-30T02:17:04.336Z,190.27
2023-01-30T02:19:40.314Z,166.87
2023-01-30T02:22:36.560Z,137.17
2023-01-30T02:25:46.910Z,114.10
2023-01-30T02:28:37.820Z,87.90
2023-01-30T02:31:18.829Z,75.00
2023-01-30T02:33:57.203Z,71.40
2023-01-30T02:36:33.965Z,66.93
2023-01-30T02:39:08.809Z,65.87
2023-01-30T02:41:44.809Z,61.93
2023-01-30T02:44:19.060Z,59.40
2023-01-30T02:46:54.666Z,62.50
2023-01-30T02:49:27.535Z,58.57
2023-01-30T02:51:57.731Z,61.07
2023-01-30T02:54:25.317Z,57.97
2023-01-30T02:56:54.568Z,58.97
2023-01-30T02:59:25.399Z,55.87
2023-01-30T03:02:24.115Z,57.60
2023-01-30T03:05:31.069Z,53.87
2023-01-30T03:08:08.542Z,54.87
2023-01-30T03:10:39.426Z,54.77
2023-01-30T03:13:13.575Z,54.07
2023-01-30T03:15:46.047Z,53.80
2023-01-30T03:18:15.443Z,51.90
2023-01-30T03:20:43.093Z,51.53
2023-01-30T03:23:11.160Z,51.83
2023-01-30T03:25:42.296Z,48.47
2023-01-30T03:28:11.933Z,49.90
2023-01-30T03:30:39.563Z,48.77
2023-01-30T03:33:07.231Z,50.43
2023-01-30T03:35:36.613Z,52.30
2023-01-30T03:38:04.225Z,51.93
2023-01-30T03:40:31.890Z,50.70
2023-01-30T03:42:59.534Z,48.27
2023-01-30T03:45:27.170Z,48.73
2023-01-30T03:47:54.901Z,51.07
2023-01-30T03:50:22.535Z,49.67
2023-01-30T03:52:51.563Z,51.27
2023-01-30T03:55:19.663Z,51.47
2023-01-30T03:57:47.692Z,51.63
2023-01-30T04:00:16.496Z,51.73
2023-01-30T04:02:44.440Z,48.57
2023-01-30T04:05:12.091Z,45.93
2023-01-30T04:07:39.700Z,48.33
2023-01-30T04:10:09.870Z,48.53
2023-01-30T04:12:37.496Z,48.17
2023-01-30T04:15:05.722Z,47.13
2023-01-30T04:17:33.377Z,44.30
2023-01-30T04:20:01.044Z,45.33
2023-01-30T04:22:28.678Z,46.03
2023-01-30T04:24:56.265Z,45.03
2023-01-30T04:27:25.240Z,49.60
2023-01-30T04:29:52.894Z,46.33
2023-01-30T04:32:20.521Z,46.03
2023-01-30T04:34:48.199Z,47.07
2023-01-30T04:37:15.772Z,47.07
2023-01-30T04:39:43.482Z,49.13
2023-01-30T04:42:11.086Z,47.70
2023-01-30T04:44:40.155Z,48.60
2023-01-30T04:47:07.972Z,45.17
2023-01-30T04:49:35.593Z,46.87
2023-01-30T04:52:03.190Z,46.67
2023-01-30T04:54:30.922Z,44.63
2023-01-30T04:56:58.680Z,43.93
2023-01-30T04:59:26.425Z,42.60
2023-01-30T05:01:55.827Z,41.50
2023-01-30T05:04:23.426Z,41.27
2023-01-30T05:06:51.077Z,44.07
2023-01-30T05:09:18.904Z,45.60
2023-01-30T05:11:46.551Z,40.37
2023-01-30T05:14:14.367Z,47.77
2023-01-30T05:16:41.987Z,45.97
2023-01-30T05:19:13.835Z,43.53
2023-01-30T05:21:41.582Z,43.07
2023-01-30T05:24:09.553Z,44.23
2023-01-30T05:26:37.408Z,46.00
2023-01-30T05:29:05.070Z,44.13
2023-01-30T05:31:32.653Z,42.23
2023-01-30T05:34:00.242Z,44.17
2023-01-30T05:36:29.228Z,46.23
2023-01-30T05:38:56.824Z,45.93
2023-01-30T05:41:24.457Z,45.87
2023-01-30T05:43:52.507Z,44.60
2023-01-30T05:46:20.608Z,48.87
2023-01-30T05:48:48.373Z,47.37
2023-01-30T05:51:18.825Z,41.87
2023-01-30T05:53:48.357Z,42.50
2023-01-30T05:56:17.007Z,43.83
2023-01-30T05:58:45.160Z,44.37
2023-01-30T06:01:14.081Z,43.23
2023-01-30T06:03:41.820Z,42.70
2023-01-30T06:06:09.554Z,42.97
2023-01-30T06:08:37.218Z,42.83
2023-01-30T06:11:08.424Z,42.87
2023-01-30T06:13:36.157Z,42.77
2023-01-30T06:16:04.690Z,44.73
2023-01-30T06:18:32.570Z,45.90
2023-01-30T06:21:00.239Z,44.20
2023-01-30T06:23:28.985Z,42.47
2023-01-30T06:25:56.685Z,44.37
2023-01-30T06:28:26.618Z,43.00
2023-01-30T06:30:55.256Z,42.30
2023-01-30T06:33:22.909Z,46.20
2023-01-30T06:35:52.617Z,50.50
2023-01-30T06:38:21.316Z,42.80
2023-01-30T06:40:50.674Z,42.97
2023-01-30T06:43:18.846Z,40.87
2023-01-30T06:45:47.821Z,41.50
2023-01-30T06:48:15.538Z,41.60
2023-01-30T06:50:43.319Z,42.07
2023-01-30T06:53:11.959Z,43.80
2023-01-30T06:55:39.614Z,42.63
2023-01-30T06:58:09.000Z,45.17
2023-01-30T07:00:39.489Z,50.07
2023-01-30T07:03:11.876Z,46.70
2023-01-30T07:05:40.190Z,45.03
2023-01-30T07:08:08.013Z,45.23
2023-01-30T07:10:36.000Z,49.07
2023-01-30T07:13:03.684Z,48.03
2023-01-30T07:15:32.187Z,48.03
2023-01-30T07:18:00.295Z,46.80
2023-01-30T07:20:30.191Z,47.83
2023-01-30T07:22:57.980Z,44.73
2023-01-30T07:25:27.696Z,50.17
2023-01-30T07:27:57.824Z,43.33
2023-01-30T07:30:26.163Z,46.70
2023-01-30T07:32:54.534Z,54.03
2023-01-30T07:35:23.215Z,43.27
2023-01-30T07:37:52.821Z,44.73
2023-01-30T07:40:21.547Z,47.47
2023-01-30T07:42:57.666Z,44.13
2023-01-30T07:45:25.403Z,44.40
2023-01-30T07:47:53.289Z,43.50
2023-01-30T07:50:21.038Z,47.57
2023-01-30T07:52:48.830Z,51.23
2023-01-30T07:55:18.176Z,42.30
2023-01-30T07:57:45.976Z,63.27
2023-01-30T08:00:14.763Z,50.73
2023-01-30T08:02:42.416Z,38.90
2023-01-30T08:05:10.598Z,38.83
2023-01-30T08:07:38.233Z,40.07
2023-01-30T08:10:06.737Z,41.30
2023-01-30T08:12:35.698Z,512.63
2023-01-30T08:15:03.285Z,526.93
2023-01-30T08:17:30.907Z,521.13
2023-01-30T08:19:58.700Z,468.30
2023-01-30T08:22:26.533Z,455.97
2023-01-30T08:24:54.091Z,415.83
2023-01-30T08:27:21.848Z,459.57
2023-01-30T08:29:50.827Z,473.03
2023-01-30T08:32:18.406Z,463.23
2023-01-30T08:34:46.046Z,459.00
2023-01-30T08:37:13.995Z,454.17
2023-01-30T08:39:41.592Z,434.67
2023-01-30T08:42:09.201Z,431.63
2023-01-30T08:44:36.830Z,424.07
2023-01-30T08:47:05.960Z,427.17
2023-01-30T08:49:33.567Z,425.90
2023-01-30T08:52:01.163Z,414.43
2023-01-30T08:54:28.940Z,370.63
2023-01-30T08:56:56.625Z,268.67
2023-01-30T08:59:24.281Z,217.63
2023-01-30T09:01:51.838Z,163.23
2023-01-30T09:04:21.168Z,138.37
2023-01-30T09:06:48.758Z,104.13
2023-01-30T09:09:16.362Z,86.73
2023-01-30T09:11:43.984Z,66.53
2023-01-30T09:14:11.571Z,52.00
2023-01-30T09:16:39.133Z,48.73
2023-01-30T09:19:06.815Z,45.57
2023-01-30T09:21:35.794Z,38.37
2023-01-30T09:24:03.432Z,38.97
2023-01-30T09:26:31.148Z,32.33
2023-01-30T09:28:58.917Z,28.57
2023-01-30T09:31:26.674Z,29.30
2023-01-30T09:33:54.293Z,29.57
2023-01-30T09:36:21.896Z,29.73
2023-01-30T09:38:50.873Z,31.03
2023-01-30T09:41:47.518Z,34.80
2023-01-30T09:44:58.481Z,32.50
2023-01-30T09:47:36.031Z,31.17
2023-01-30T09:50:20.444Z,461.93
2023-01-30T09:52:57.288Z,505.50
2023-01-30T09:55:29.213Z,471.97
2023-01-30T09:57:59.593Z,446.77
2023-01-30T10:00:34.307Z,379.60
2023-01-30T10:03:07.815Z,448.70
2023-01-30T10:05:41.498Z,397.43
2023-01-30T10:08:38.148Z,369.73
2023-01-30T10:11:17.044Z,326.07
2023-01-30T10:14:05.492Z,301.20
2023-01-30T10:16:39.034Z,249.57
2023-01-30T10:19:35.199Z,231.33
2023-01-30T10:22:16.299Z,222.33
2023-01-30T10:24:56.932Z,223.13
2023-01-30T10:27:29.970Z,227.33
2023-01-30T10:30:01.240Z,214.50
2023-01-30T10:32:33.175Z,152.10
2023-01-30T10:35:06.799Z,164.53
2023-01-30T10:37:39.510Z,120.60
2023-01-30T10:40:19.167Z,96.50
2023-01-30T10:42:56.352Z,81.90
2023-01-30T10:45:32.742Z,55.53
2023-01-30T10:48:13.575Z,57.23
2023-01-30T10:50:51.554Z,49.83
2023-01-30T10:53:27.197Z,57.70
2023-01-30T10:56:01.588Z,54.07
2023-01-30T10:58:39.306Z,47.57
2023-01-30T11:01:13.083Z,43.53
2023-01-30T11:03:47.704Z,41.93
2023-01-30T11:06:18.622Z,40.50
2023-01-30T11:08:46.874Z,43.13
2023-01-30T11:11:32.079Z,40.70
2023-01-30T11:14:05.550Z,37.90
2023-01-30T11:16:43.184Z,37.63
2023-01-30T11:19:21.605Z,34.80
2023-01-30T11:21:51.854Z,32.63
2023-01-30T11:24:21.144Z,38.97
2023-01-30T11:26:49.430Z,36.17
2023-01-30T11:29:26.987Z,34.93
2023-01-30T11:31:55.340Z,33.67
2023-01-30T11:34:25.445Z,32.70
2023-01-30T11:36:53.415Z,33.57
2023-01-30T11:39:24.441Z,33.10
2023-01-30T11:42:04.662Z,29.90
2023-01-30T11:44:35.520Z,33.53
2023-01-30T11:47:07.879Z,32.27
2023-01-30T11:49:47.473Z,30.17
2023-01-30T11:52:28.462Z,28.77
2023-01-30T11:55:03.231Z,28.20
2023-01-30T11:57:30.988Z,28.87
2023-01-30T12:00:02.225Z,30.43
2023-01-30T12:02:33.504Z,30.00
2023-01-30T12:05:03.929Z,29.13
2023-01-30T12:07:34.330Z,30.83
2023-01-30T12:10:02.203Z,31.27
2023-01-30T12:12:35.754Z,32.30
2023-01-30T12:15:20.009Z,32.87
2023-01-30T12:17:53.614Z,31.40
2023-01-30T12:20:29.423Z,34.80
2023-01-30T12:23:08.935Z,33.20
2023-01-30T12:25:42.561Z,33.67
2023-01-30T12:28:19.753Z,30.97
2023-01-30T12:30:52.714Z,32.20
2023-01-30T12:33:20.429Z,32.37
2023-01-30T12:35:56.729Z,31.67
2023-01-30T12:38:39.096Z,28.90
2023-01-30T12:41:23.935Z,32.67
2023-01-30T12:44:07.559Z,32.03
2023-01-30T12:46:47.309Z,29.60
2023-01-30T12:49:33.308Z,29.30
2023-01-30T12:52:19.860Z,29.20
2023-01-30T12:54:55.596Z,29.77
2023-01-30T12:57:33.825Z,29.57
2023-01-30T13:00:17.872Z,29.93
2023-01-30T13:02:58.958Z,30.90
2023-01-30T13:05:38.439Z,31.73
2023-01-30T13:08:33.462Z,31.37
2023-01-30T13:11:09.337Z,31.73
2023-01-30T13:13:43.747Z,35.27
2023-01-30T13:16:16.945Z,37.43
2023-01-30T13:18:52.980Z,37.30
2023-01-30T13:21:25.703Z,36.90
2023-01-30T13:24:05.516Z,36.20
2023-01-30T13:26:36.760Z,42.63
2023-01-30T13:29:10.801Z,40.93
2023-01-30T13:31:43.378Z,39.90
2023-01-30T13:34:19.816Z,37.60
2023-01-30T13:36:52.306Z,37.10
2023-01-30T13:39:28.372Z,33.13
2023-01-30T13:42:01.244Z,33.13
2023-01-30T13:44:32.246Z,31.83
2023-01-30T13:47:21.389Z,32.10
2023-01-30T13:49:59.351Z,31.50
2023-01-30T13:52:33.766Z,30.60
2023-01-30T13:55:08.180Z,32.77
2023-01-30T13:57:48.047Z,31.60
2023-01-30T14:00:30.239Z,31.57
2023-01-30T14:03:30.522Z,30.93
2023-01-30T14:06:14.340Z,30.47
2023-01-30T14:08:51.667Z,35.77
2023-01-30T14:11:35.436Z,32.37
2023-01-30T14:14:07.397Z,31.73
2023-01-30T14:16:43.546Z,32.03
2023-01-30T14:19:29.141Z,31.67
2023-01-30T14:22:00.571Z,30.63
2023-01-30T14:24:31.373Z,29.97
2023-01-30T14:27:24.649Z,29.90
2023-01-30T14:29:56.669Z,33.37
2023-01-30T14:32:54.178Z,31.87
2023-01-30T14:35:29.664Z,33.00
2023-01-30T14:38:14.128Z,30.43
2023-01-30T14:41:03.957Z,33.03
2023-01-30T14:43:52.321Z,31.07
2023-01-30T14:46:54.695Z,32.33
2023-01-30T14:49:29.418Z,33.37
2023-01-30T14:51:57.238Z,31.00
2023-01-30T14:54:41.185Z,32.73
2023-01-30T14:57:21.183Z,34.47
2023-01-30T15:00:13.117Z,31.67
2023-01-30T15:02:44.315Z,31.53
2023-01-30T15:05:16.066Z,33.73
2023-01-30T15:07:46.950Z,32.23
2023-01-30T15:10:33.957Z,36.37
2023-01-30T15:13:22.688Z,38.70
2023-01-30T15:16:01.634Z,32.00
2023-01-30T15:18:44.193Z,33.40
2023-01-30T15:21:37.383Z,33.13
2023-01-30T15:24:32.493Z,31.20
2023-01-30T15:27:08.174Z,33.47
2023-01-30T15:30:08.283Z,30.87
2023-01-30T15:32:36.089Z,30.73
2023-01-30T15:35:22.581Z,29.17
2023-01-30T15:37:51.994Z,30.50
2023-01-30T15:40:22.444Z,29.77
2023-01-30T15:42:56.410Z,32.63
2023-01-30T15:45:37.692Z,32.40
2023-01-30T15:48:21.614Z,26.37
2023-01-30T15:50:51.855Z,26.63
2023-01-30T15:53:27.342Z,26.93
2023-01-30T15:55:55.818Z,29.60
2023-01-30T15:58:25.669Z,29.60
2023-01-30T16:00:56.211Z,25.90
2023-01-30T16:03:27.039Z,27.07
2023-01-30T16:05:56.732Z,30.13
2023-01-30T16:08:26.709Z,33.90
2023-01-30T16:10:54.538Z,28.73
2023-01-30T16:13:25.177Z,29.50
2023-01-30T16:15:59.251Z,28.30
2023-01-30T16:18:33.556Z,27.40
2023-01-30T16:21:04.495Z,27.40
2023-01-30T16:23:36.329Z,30.33
2023-01-30T16:26:05.703Z,30.30
2023-01-30T16:28:35.022Z,29.03
2023-01-30T16:31:05.966Z,29.30
2023-01-30T16:33:37.036Z,32.90
2023-01-30T16:36:05.830Z,29.53
2023-01-30T16:38:40.555Z,28.63
2023-01-30T16:41:29.674Z,29.53
2023-01-30T16:44:19.395Z,29.27
2023-01-30T16:46:50.065Z,26.30
2023-01-30T16:49:24.173Z,24.50
2023-01-30T16:52:01.775Z,26.60
2023-01-30T16:54:32.047Z,27.00
2023-01-30T16:57:02.154Z,26.60
2023-01-30T16:59:33.938Z,25.73
2023-01-30T17:02:05.308Z,23.93
2023-01-30T17:04:35.734Z,26.20
2023-01-30T17:07:05.197Z,23.80
2023-01-30T17:09:42.943Z,26.70
2023-01-30T17:12:37.177Z,25.60
2023-01-30T17:15:35.298Z,25.07
2023-01-30T17:18:03.229Z,27.13
2023-01-30T17:20:41.381Z,24.90
2023-01-30T17:23:10.699Z,25.93
2023-01-30T17:25:42.104Z,25.23
2023-01-30T17:28:16.759Z,26.13
2023-01-30T17:30:45.872Z,26.27
2023-01-30T17:33:13.462Z,25.73
2023-01-30T17:35:41.379Z,25.00
2023-01-30T17:38:10.223Z,24.87
2023-01-30T17:40:38.973Z,25.40
2023-01-30T17:43:06.871Z,25.70
2023-01-30T17:45:34.879Z,24.90
2023-01-30T17:48:03.902Z,25.50
2023-01-30T17:50:32.386Z,26.77
2023-01-30T17:53:00.201Z,25.63
2023-01-30T17:55:27.839Z,26.80
2023-01-30T17:57:56.427Z,26.73
2023-01-30T18:00:24.378Z,26.40
2023-01-30T18:02:53.062Z,26.40
2023-01-30T18:05:23.053Z,33.23
2023-01-30T18:07:51.058Z,28.23
2023-01-30T18:10:20.902Z,26.23
2023-01-30T18:12:48.643Z,27.70
2023-01-30T18:15:17.048Z,27.40
2023-01-30T18:17:47.568Z,27.70
2023-01-30T18:20:18.138Z,27.40
2023-01-30T18:22:47.963Z,27.00
2023-01-30T18:25:17.413Z,27.67
2023-01-30T18:27:47.905Z,27.10
2023-01-30T18:30:18.095Z,27.70
2023-01-30T18:32:52.935Z,26.87
2023-01-30T18:35:21.813Z,28.63
2023-01-30T18:37:50.979Z,26.40
2023-01-30T18:40:19.673Z,25.53
2023-01-30T18:42:47.638Z,29.73
2023-01-30T18:45:15.600Z,28.53
2023-01-30T18:47:43.395Z,26.13
2023-01-30T18:50:12.241Z,25.63
2023-01-30T18:52:39.893Z,26.70
2023-01-30T18:55:09.529Z,25.83
2023-01-30T18:57:37.233Z,27.83
2023-01-30T19:00:05.862Z,31.60
2023-01-30T19:02:33.575Z,27.90
2023-01-30T19:05:01.230Z,27.93
2023-01-30T19:07:28.789Z,25.90
2023-01-30T19:09:56.440Z,25.93
2023-01-30T19:12:43.355Z,25.80
2023-01-30T19:15:11.479Z,27.50
2023-01-30T19:17:39.102Z,26.20
2023-01-30T19:20:11.112Z,24.60
2023-01-30T19:22:38.860Z,26.07
2023-01-30T19:25:07.562Z,25.43
2023-01-30T19:27:38.419Z,26.50
2023-01-30T19:30:07.414Z,26.37
2023-01-30T19:32:35.396Z,27.37
2023-01-30T19:35:03.125Z,32.53
2023-01-30T19:37:30.893Z,27.17
2023-01-30T19:39:58.483Z,26.60
2023-01-30T19:42:26.249Z,28.67
2023-01-30T19:44:55.224Z,27.53
2023-01-30T19:47:23.348Z,25.90
2023-01-30T19:49:51.116Z,28.23
2023-01-30T19:52:18.759Z,29.50
2023-01-30T19:54:47.679Z,32.73
2023-01-30T19:57:15.258Z,30.13
2023-01-30T19:59:43.429Z,25.27
2023-01-30T20:02:12.769Z,26.90
2023-01-30T20:04:40.685Z,26.37
2023-01-30T20:07:08.335Z,25.30
2023-01-30T20:09:35.922Z,26.63
2023-01-30T20:12:03.646Z,26.87
2023-01-30T20:14:31.279Z,26.17
2023-01-30T20:16:58.936Z,26.33
2023-01-30T20:19:28.163Z,26.27
2023-01-30T20:21:56.063Z,26.00
2023-01-30T20:24:23.696Z,23.33
2023-01-30T20:26:51.303Z,25.47
2023-01-30T20:29:19.012Z,24.10
2023-01-30T20:31:46.791Z,28.33
2023-01-30T20:34:15.678Z,25.47
2023-01-30T20:36:44.730Z,26.37
2023-01-30T20:39:12.817Z,25.67
2023-01-30T20:41:40.687Z,24.43
2023-01-30T20:44:10.557Z,25.20
2023-01-30T20:46:41.419Z,24.77
2023-01-30T20:49:13.364Z,27.23
2023-01-30T20:51:41.760Z,25.53
2023-01-30T20:54:13.618Z,21.00
2023-01-30T20:56:42.927Z,21.63
2023-01-30T20:59:12.396Z,21.00
2023-01-30T21:01:40.566Z,22.00
2023-01-30T21:04:09.812Z,21.73
2023-01-30T21:06:44.798Z,21.53
2023-01-30T21:09:16.360Z,21.50
2023-01-30T21:11:44.075Z,20.63
2023-01-30T21:14:11.879Z,21.17
2023-01-30T21:16:40.174Z,22.50
2023-01-30T21:19:13.941Z,22.80
2023-01-30T21:21:43.990Z,20.90
2023-01-30T21:24:15.266Z,21.80
2023-01-30T21:26:46.514Z,22.70
2023-01-30T21:29:15.933Z,24.30
2023-01-30T21:31:44.763Z,23.60
2023-01-30T21:34:13.211Z,23.40
2023-01-30T21:36:41.210Z,22.10
2023-01-30T21:39:27.879Z,24.37
2023-01-30T21:42:14.422Z,24.40
2023-01-30T21:44:42.385Z,25.30
2023-01-30T21:47:10.027Z,25.50
2023-01-30T21:49:37.788Z,26.27
2023-01-30T21:52:05.744Z,28.30
2023-01-30T21:54:33.361Z,29.90
2023-01-30T21:57:02.562Z,25.33
2023-01-30T21:59:31.434Z,23.60
2023-01-30T22:01:59.089Z,24.67
2023-01-30T22:04:26.682Z,23.83
2023-01-30T22:06:54.494Z,23.73
2023-01-30T22:09:22.141Z,25.13
2023-01-30T22:11:49.728Z,23.43
2023-01-30T22:14:18.714Z,24.90
2023-01-30T22:16:46.310Z,26.13
2023-01-30T22:19:14.282Z,24.07
2023-01-30T22:21:42.005Z,24.03
2023-01-30T22:24:11.626Z,27.97
2023-01-30T22:26:39.697Z,25.70
2023-01-30T22:29:07.788Z,26.90
2023-01-30T22:31:40.393Z,25.90
2023-01-30T22:34:08.927Z,25.87
2023-01-30T22:36:37.546Z,25.90
2023-01-30T22:39:06.389Z,25.07
2023-01-30T22:41:36.369Z,25.63
2023-01-30T22:44:06.348Z,23.73
2023-01-30T22:46:37.508Z,24.27
2023-01-30T22:49:06.842Z,25.97
2023-01-30T22:51:37.193Z,25.10
2023-01-30T22:54:06.422Z,24.37
2023-01-30T22:56:37.070Z,26.50
2023-01-30T22:59:05.551Z,25.20
2023-01-30T23:01:34.988Z,27.67
2023-01-30T23:04:06.307Z,26.03
2023-01-30T23:06:34.801Z,26.00
2023-01-30T23:09:03.614Z,24.50
2023-01-30T23:11:32.969Z,25.77
2023-01-30T23:14:06.759Z,25.17
2023-01-30T23:16:36.047Z,25.00
2023-01-30T23:19:05.000Z,25.43
2023-01-30T23:21:35.970Z,24.83
2023-01-30T23:24:07.480Z,24.23
2023-01-30T23:26:38.207Z,23.50
2023-01-30T23:29:08.021Z,24.97
2023-01-30T23:31:37.038Z,25.57
2023-01-30T23:34:07.979Z,24.43
2023-01-30T23:36:36.524Z,24.90
2023-01-30T23:39:06.318Z,23.63
2023-01-30T23:41:36.825Z,24.57
2023-01-30T23:44:05.196Z,24.30
2023-01-30T23:46:34.410Z,26.43
2023-01-30T23:49:04.425Z,24.77
2023-01-30T23:51:35.491Z,24.93
2023-01-30T23:54:04.138Z,25.00
2023-01-30T23:56:34.073Z,24.40
2023-01-30T23:59:01.780Z,24.60
